sensor_id;sensor_type;location;lat;lon;timestamp;P1;durP1;ratioP1;P2;durP2;ratioP2
45011;SDS011;63444;48.148;11.542;2022-10-16T00:01:35;2.77;;;2.20;;
45011;SDS011;63444;48.148;11.542;2022-10-16T00:04:01;4.10;;;2.43;;
45011;SDS011;63444;48.148;11.542;2022-10-16T00:06:27;2.60;;;2.27;;
45011;SDS011;63444;48.148;11.542;2022-10-16T00:08:53;3.63;;;2.07;;
45011;SDS011;63444;48.148;11.542;2022-10-16T00:11:21;2.53;;;2.03;;
45011;SDS011;63444;48.148;11.542;2022-10-16T00:13:51;3.00;;;2.00;;
45011;SDS011;63444;48.148;11.542;2022-10-16T00:16:20;3.60;;;2.10;;
45011;SDS011;63444;48.148;11.542;2022-10-16T00:18:46;2.07;;;1.87;;
45011;SDS011;63444;48.148;11.542;2022-10-16T00:21:14;2.70;;;2.27;;
45011;SDS011;63444;48.148;11.542;2022-10-16T00:23:41;3.73;;;2.10;;
45011;SDS011;63444;48.148;11.542;2022-10-16T00:26:08;3.13;;;2.27;;
45011;SDS011;63444;48.148;11.542;2022-10-16T00:28:37;2.60;;;2.30;;
45011;SDS011;63444;48.148;11.542;2022-10-16T00:31:03;3.80;;;2.10;;
45011;SDS011;63444;48.148;11.542;2022-10-16T00:33:30;2.30;;;2.10;;
45011;SDS011;63444;48.148;11.542;2022-10-16T00:35:59;3.37;;;1.80;;
45011;SDS011;63444;48.148;11.542;2022-10-16T00:38:25;2.97;;;2.10;;
45011;SDS011;63444;48.148;11.542;2022-10-16T00:40:50;2.53;;;1.90;;
45011;SDS011;63444;48.148;11.542;2022-10-16T00:43:36;2.97;;;1.90;;
45011;SDS011;63444;48.148;11.542;2022-10-16T00:46:04;4.23;;;1.90;;
45011;SDS011;63444;48.148;11.542;2022-10-16T00:48:35;2.43;;;1.80;;
45011;SDS011;63444;48.148;11.542;2022-10-16T00:51:01;2.57;;;1.83;;
45011;SDS011;63444;48.148;11.542;2022-10-16T00:53:27;3.60;;;2.00;;
45011;SDS011;63444;48.148;11.542;2022-10-16T00:55:53;6.87;;;2.50;;
45011;SDS011;63444;48.148;11.542;2022-10-16T00:58:19;3.10;;;2.00;;
45011;SDS011;63444;48.148;11.542;2022-10-16T01:00:45;3.10;;;2.03;;
45011;SDS011;63444;48.148;11.542;2022-10-16T01:03:24;2.67;;;1.60;;
45011;SDS011;63444;48.148;11.542;2022-10-16T01:05:52;4.30;;;1.80;;
45011;SDS011;63444;48.148;11.542;2022-10-16T01:11:33;3.50;;;1.90;;
45011;SDS011;63444;48.148;11.542;2022-10-16T01:14:10;2.20;;;1.93;;
45011;SDS011;63444;48.148;11.542;2022-10-16T01:16:44;2.20;;;1.80;;
45011;SDS011;63444;48.148;11.542;2022-10-16T01:19:39;1.73;;;1.63;;
45011;SDS011;63444;48.148;11.542;2022-10-16T01:22:20;3.40;;;1.77;;
45011;SDS011;63444;48.148;11.542;2022-10-16T01:24:50;4.77;;;2.00;;
45011;SDS011;63444;48.148;11.542;2022-10-16T01:27:27;2.97;;;1.90;;
45011;SDS011;63444;48.148;11.542;2022-10-16T01:29:56;3.33;;;1.70;;
45011;SDS011;63444;48.148;11.542;2022-10-16T01:35:18;2.73;;;1.63;;
45011;SDS011;63444;48.148;11.542;2022-10-16T01:40:52;3.07;;;1.63;;
45011;SDS011;63444;48.148;11.542;2022-10-16T01:43:27;4.97;;;1.97;;
45011;SDS011;63444;48.148;11.542;2022-10-16T01:45:58;3.17;;;1.90;;
45011;SDS011;63444;48.148;11.542;2022-10-16T01:48:25;2.80;;;1.70;;
45011;SDS011;63444;48.148;11.542;2022-10-16T01:50:59;3.47;;;2.07;;
45011;SDS011;63444;48.148;11.542;2022-10-16T01:53:31;2.53;;;1.80;;
45011;SDS011;63444;48.148;11.542;2022-10-16T01:55:57;3.67;;;2.00;;
45011;SDS011;63444;48.148;11.542;2022-10-16T01:58:25;3.87;;;1.73;;
45011;SDS011;63444;48.148;11.542;2022-10-16T02:00:55;2.10;;;1.70;;
45011;SDS011;63444;48.148;11.542;2022-10-16T02:03:22;3.87;;;1.83;;
45011;SDS011;63444;48.148;11.542;2022-10-16T02:05:54;4.53;;;1.93;;
45011;SDS011;63444;48.148;11.542;2022-10-16T02:08:22;2.87;;;1.70;;
45011;SDS011;63444;48.148;11.542;2022-10-16T02:10:50;1.87;;;1.70;;
45011;SDS011;63444;48.148;11.542;2022-10-16T02:13:21;2.77;;;1.60;;
45011;SDS011;63444;48.148;11.542;2022-10-16T02:15:51;1.90;;;1.70;;
45011;SDS011;63444;48.148;11.542;2022-10-16T02:18:18;1.90;;;1.80;;
45011;SDS011;63444;48.148;11.542;2022-10-16T02:20:51;3.13;;;2.00;;
45011;SDS011;63444;48.148;11.542;2022-10-16T02:23:32;5.40;;;2.00;;
45011;SDS011;63444;48.148;11.542;2022-10-16T02:26:18;1.60;;;1.50;;
45011;SDS011;63444;48.148;11.542;2022-10-16T02:28:57;3.87;;;1.60;;
45011;SDS011;63444;48.148;11.542;2022-10-16T02:31:31;5.37;;;1.73;;
45011;SDS011;63444;48.148;11.542;2022-10-16T02:34:00;2.33;;;1.77;;
45011;SDS011;63444;48.148;11.542;2022-10-16T02:36:30;4.67;;;1.77;;
45011;SDS011;63444;48.148;11.542;2022-10-16T02:38:56;3.03;;;1.80;;
45011;SDS011;63444;48.148;11.542;2022-10-16T02:41:25;2.50;;;1.63;;
45011;SDS011;63444;48.148;11.542;2022-10-16T02:43:50;2.33;;;1.53;;
45011;SDS011;63444;48.148;11.542;2022-10-16T02:46:16;2.40;;;1.50;;
45011;SDS011;63444;48.148;11.542;2022-10-16T02:48:43;2.33;;;1.40;;
45011;SDS011;63444;48.148;11.542;2022-10-16T02:51:08;1.57;;;1.47;;
45011;SDS011;63444;48.148;11.542;2022-10-16T02:53:34;1.87;;;1.67;;
45011;SDS011;63444;48.148;11.542;2022-10-16T02:55:59;1.60;;;1.50;;
45011;SDS011;63444;48.148;11.542;2022-10-16T02:58:25;4.20;;;1.70;;
45011;SDS011;63444;48.148;11.542;2022-10-16T03:00:50;1.77;;;1.57;;
45011;SDS011;63444;48.148;11.542;2022-10-16T03:03:16;2.07;;;1.30;;
45011;SDS011;63444;48.148;11.542;2022-10-16T03:05:42;2.13;;;1.53;;
45011;SDS011;63444;48.148;11.542;2022-10-16T03:08:12;3.77;;;1.67;;
45011;SDS011;63444;48.148;11.542;2022-10-16T03:10:38;1.43;;;1.33;;
45011;SDS011;63444;48.148;11.542;2022-10-16T03:13:03;2.23;;;1.57;;
45011;SDS011;63444;48.148;11.542;2022-10-16T03:15:29;2.10;;;1.50;;
45011;SDS011;63444;48.148;11.542;2022-10-16T03:17:58;3.33;;;1.60;;
45011;SDS011;63444;48.148;11.542;2022-10-16T03:20:24;3.33;;;1.73;;
45011;SDS011;63444;48.148;11.542;2022-10-16T03:22:50;3.63;;;1.80;;
45011;SDS011;63444;48.148;11.542;2022-10-16T03:25:16;2.73;;;1.73;;
45011;SDS011;63444;48.148;11.542;2022-10-16T03:27:42;2.17;;;1.40;;
45011;SDS011;63444;48.148;11.542;2022-10-16T03:30:08;3.27;;;1.80;;
45011;SDS011;63444;48.148;11.542;2022-10-16T03:32:35;1.50;;;1.40;;
45011;SDS011;63444;48.148;11.542;2022-10-16T03:35:00;3.17;;;1.40;;
45011;SDS011;63444;48.148;11.542;2022-10-16T03:37:26;2.70;;;1.60;;
45011;SDS011;63444;48.148;11.542;2022-10-16T03:39:51;2.20;;;1.73;;
45011;SDS011;63444;48.148;11.542;2022-10-16T03:42:17;2.70;;;1.50;;
45011;SDS011;63444;48.148;11.542;2022-10-16T03:44:43;1.67;;;1.47;;
45011;SDS011;63444;48.148;11.542;2022-10-16T03:47:08;1.60;;;1.50;;
45011;SDS011;63444;48.148;11.542;2022-10-16T03:49:34;1.63;;;1.50;;
45011;SDS011;63444;48.148;11.542;2022-10-16T03:51:59;2.40;;;1.43;;
45011;SDS011;63444;48.148;11.542;2022-10-16T03:54:25;2.33;;;1.50;;
45011;SDS011;63444;48.148;11.542;2022-10-16T03:56:51;2.40;;;1.80;;
45011;SDS011;63444;48.148;11.542;2022-10-16T03:59:16;1.43;;;1.33;;
45011;SDS011;63444;48.148;11.542;2022-10-16T04:01:42;1.83;;;1.73;;
45011;SDS011;63444;48.148;11.542;2022-10-16T04:04:08;1.90;;;1.60;;
45011;SDS011;63444;48.148;11.542;2022-10-16T04:06:33;2.03;;;1.90;;
45011;SDS011;63444;48.148;11.542;2022-10-16T04:08:59;3.67;;;1.73;;
45011;SDS011;63444;48.148;11.542;2022-10-16T04:11:26;2.53;;;2.20;;
45011;SDS011;63444;48.148;11.542;2022-10-16T04:13:52;4.40;;;1.87;;
45011;SDS011;63444;48.148;11.542;2022-10-16T04:16:18;3.03;;;1.70;;
45011;SDS011;63444;48.148;11.542;2022-10-16T04:18:45;3.33;;;1.77;;
45011;SDS011;63444;48.148;11.542;2022-10-16T04:21:10;4.00;;;1.60;;
45011;SDS011;63444;48.148;11.542;2022-10-16T04:23:36;1.37;;;1.27;;
45011;SDS011;63444;48.148;11.542;2022-10-16T04:26:01;1.77;;;1.67;;
45011;SDS011;63444;48.148;11.542;2022-10-16T04:28:27;1.50;;;1.40;;
45011;SDS011;63444;48.148;11.542;2022-10-16T04:30:53;2.43;;;1.50;;
45011;SDS011;63444;48.148;11.542;2022-10-16T04:33:19;2.67;;;1.60;;
45011;SDS011;63444;48.148;11.542;2022-10-16T04:35:44;4.00;;;1.67;;
45011;SDS011;63444;48.148;11.542;2022-10-16T04:38:10;2.73;;;1.60;;
45011;SDS011;63444;48.148;11.542;2022-10-16T04:40:35;3.33;;;1.40;;
45011;SDS011;63444;48.148;11.542;2022-10-16T04:43:02;1.60;;;1.50;;
45011;SDS011;63444;48.148;11.542;2022-10-16T04:45:29;3.13;;;1.60;;
45011;SDS011;63444;48.148;11.542;2022-10-16T04:47:58;2.07;;;1.70;;
45011;SDS011;63444;48.148;11.542;2022-10-16T04:50:24;1.90;;;1.60;;
45011;SDS011;63444;48.148;11.542;2022-10-16T04:52:51;1.60;;;1.50;;
45011;SDS011;63444;48.148;11.542;2022-10-16T04:55:16;1.63;;;1.53;;
45011;SDS011;63444;48.148;11.542;2022-10-16T04:57:42;2.17;;;1.60;;
45011;SDS011;63444;48.148;11.542;2022-10-16T05:00:08;1.83;;;1.40;;
45011;SDS011;63444;48.148;11.542;2022-10-16T05:02:34;2.07;;;1.67;;
45011;SDS011;63444;48.148;11.542;2022-10-16T05:04:59;2.80;;;1.40;;
45011;SDS011;63444;48.148;11.542;2022-10-16T05:07:25;3.67;;;1.70;;
45011;SDS011;63444;48.148;11.542;2022-10-16T05:09:51;1.83;;;1.63;;
45011;SDS011;63444;48.148;11.542;2022-10-16T05:12:17;1.80;;;1.70;;
45011;SDS011;63444;48.148;11.542;2022-10-16T05:14:42;2.90;;;1.83;;
45011;SDS011;63444;48.148;11.542;2022-10-16T05:17:08;3.17;;;1.90;;
45011;SDS011;63444;48.148;11.542;2022-10-16T05:19:33;1.70;;;1.60;;
45011;SDS011;63444;48.148;11.542;2022-10-16T05:21:59;2.17;;;1.97;;
45011;SDS011;63444;48.148;11.542;2022-10-16T05:24:26;2.77;;;1.50;;
45011;SDS011;63444;48.148;11.542;2022-10-16T05:26:52;2.00;;;1.80;;
45011;SDS011;63444;48.148;11.542;2022-10-16T05:29:18;1.73;;;1.63;;
45011;SDS011;63444;48.148;11.542;2022-10-16T05:31:44;2.50;;;1.73;;
45011;SDS011;63444;48.148;11.542;2022-10-16T05:34:09;1.67;;;1.40;;
45011;SDS011;63444;48.148;11.542;2022-10-16T05:36:35;1.60;;;1.50;;
45011;SDS011;63444;48.148;11.542;2022-10-16T05:39:01;2.90;;;1.70;;
45011;SDS011;63444;48.148;11.542;2022-10-16T05:41:27;1.93;;;1.53;;
45011;SDS011;63444;48.148;11.542;2022-10-16T05:43:52;1.70;;;1.60;;
45011;SDS011;63444;48.148;11.542;2022-10-16T05:46:18;2.20;;;1.80;;
45011;SDS011;63444;48.148;11.542;2022-10-16T05:48:44;3.37;;;1.60;;
45011;SDS011;63444;48.148;11.542;2022-10-16T05:51:11;1.80;;;1.70;;
45011;SDS011;63444;48.148;11.542;2022-10-16T05:53:38;1.70;;;1.60;;
45011;SDS011;63444;48.148;11.542;2022-10-16T05:56:05;1.70;;;1.60;;
45011;SDS011;63444;48.148;11.542;2022-10-16T05:58:33;1.73;;;1.63;;
45011;SDS011;63444;48.148;11.542;2022-10-16T06:01:08;1.80;;;1.70;;
45011;SDS011;63444;48.148;11.542;2022-10-16T06:03:38;1.97;;;1.63;;
45011;SDS011;63444;48.148;11.542;2022-10-16T06:06:11;1.87;;;1.77;;
45011;SDS011;63444;48.148;11.542;2022-10-16T06:08:40;2.23;;;2.00;;
45011;SDS011;63444;48.148;11.542;2022-10-16T06:11:07;2.40;;;2.00;;
45011;SDS011;63444;48.148;11.542;2022-10-16T06:13:35;2.70;;;2.13;;
45011;SDS011;63444;48.148;11.542;2022-10-16T06:16:01;2.13;;;1.87;;
45011;SDS011;63444;48.148;11.542;2022-10-16T06:18:28;2.10;;;1.90;;
45011;SDS011;63444;48.148;11.542;2022-10-16T06:20:54;2.20;;;2.00;;
45011;SDS011;63444;48.148;11.542;2022-10-16T06:23:21;2.10;;;1.70;;
45011;SDS011;63444;48.148;11.542;2022-10-16T06:25:48;3.43;;;1.97;;
45011;SDS011;63444;48.148;11.542;2022-10-16T06:28:14;2.47;;;1.93;;
45011;SDS011;63444;48.148;11.542;2022-10-16T06:30:40;2.43;;;1.97;;
45011;SDS011;63444;48.148;11.542;2022-10-16T06:33:08;2.17;;;1.93;;
45011;SDS011;63444;48.148;11.542;2022-10-16T06:35:34;4.20;;;2.30;;
45011;SDS011;63444;48.148;11.542;2022-10-16T06:38:00;3.57;;;2.00;;
45011;SDS011;63444;48.148;11.542;2022-10-16T06:40:27;2.67;;;2.47;;
45011;SDS011;63444;48.148;11.542;2022-10-16T06:42:54;3.63;;;2.13;;
45011;SDS011;63444;48.148;11.542;2022-10-16T06:45:20;3.33;;;1.87;;
45011;SDS011;63444;48.148;11.542;2022-10-16T06:47:46;2.83;;;2.10;;
45011;SDS011;63444;48.148;11.542;2022-10-16T06:50:11;2.20;;;2.00;;
45011;SDS011;63444;48.148;11.542;2022-10-16T06:52:37;2.30;;;1.80;;
45011;SDS011;63444;48.148;11.542;2022-10-16T06:55:03;1.90;;;1.80;;
45011;SDS011;63444;48.148;11.542;2022-10-16T06:57:28;2.67;;;2.47;;
45011;SDS011;63444;48.148;11.542;2022-10-16T06:59:54;4.57;;;2.40;;
45011;SDS011;63444;48.148;11.542;2022-10-16T07:02:20;3.37;;;2.10;;
45011;SDS011;63444;48.148;11.542;2022-10-16T07:04:45;2.07;;;1.87;;
45011;SDS011;63444;48.148;11.542;2022-10-16T07:07:11;2.20;;;2.00;;
45011;SDS011;63444;48.148;11.542;2022-10-16T07:09:37;2.20;;;2.00;;
45011;SDS011;63444;48.148;11.542;2022-10-16T07:12:02;2.67;;;2.30;;
45011;SDS011;63444;48.148;11.542;2022-10-16T07:14:28;3.87;;;2.33;;
45011;SDS011;63444;48.148;11.542;2022-10-16T07:16:56;3.07;;;2.00;;
45011;SDS011;63444;48.148;11.542;2022-10-16T07:19:21;3.40;;;2.30;;
45011;SDS011;63444;48.148;11.542;2022-10-16T07:21:48;2.30;;;2.10;;
45011;SDS011;63444;48.148;11.542;2022-10-16T07:24:14;4.17;;;2.27;;
45011;SDS011;63444;48.148;11.542;2022-10-16T07:26:41;2.47;;;2.27;;
45011;SDS011;63444;48.148;11.542;2022-10-16T07:29:12;3.27;;;2.20;;
45011;SDS011;63444;48.148;11.542;2022-10-16T07:31:42;4.13;;;2.10;;
45011;SDS011;63444;48.148;11.542;2022-10-16T07:34:09;2.63;;;2.37;;
45011;SDS011;63444;48.148;11.542;2022-10-16T07:36:36;2.03;;;1.90;;
45011;SDS011;63444;48.148;11.542;2022-10-16T07:39:01;3.70;;;2.23;;
45011;SDS011;63444;48.148;11.542;2022-10-16T07:41:27;3.67;;;2.20;;
45011;SDS011;63444;48.148;11.542;2022-10-16T07:43:53;2.97;;;2.67;;
45011;SDS011;63444;48.148;11.542;2022-10-16T07:46:20;3.63;;;2.13;;
45011;SDS011;63444;48.148;11.542;2022-10-16T07:48:47;2.40;;;2.20;;
45011;SDS011;63444;48.148;11.542;2022-10-16T07:51:14;3.67;;;2.33;;
45011;SDS011;63444;48.148;11.542;2022-10-16T07:53:43;2.97;;;2.30;;
45011;SDS011;63444;48.148;11.542;2022-10-16T07:56:09;2.63;;;2.37;;
45011;SDS011;63444;48.148;11.542;2022-10-16T07:58:35;3.10;;;2.33;;
45011;SDS011;63444;48.148;11.542;2022-10-16T08:01:12;2.80;;;2.40;;
45011;SDS011;63444;48.148;11.542;2022-10-16T08:03:43;3.43;;;2.40;;
45011;SDS011;63444;48.148;11.542;2022-10-16T08:06:10;3.40;;;2.47;;
45011;SDS011;63444;48.148;11.542;2022-10-16T08:08:36;4.40;;;2.47;;
45011;SDS011;63444;48.148;11.542;2022-10-16T08:11:02;2.53;;;2.20;;
45011;SDS011;63444;48.148;11.542;2022-10-16T08:13:29;2.73;;;2.10;;
45011;SDS011;63444;48.148;11.542;2022-10-16T08:15:55;3.70;;;2.30;;
45011;SDS011;63444;48.148;11.542;2022-10-16T08:18:20;3.83;;;2.20;;
45011;SDS011;63444;48.148;11.542;2022-10-16T08:20:46;2.73;;;2.00;;
45011;SDS011;63444;48.148;11.542;2022-10-16T08:23:13;2.47;;;2.00;;
45011;SDS011;63444;48.148;11.542;2022-10-16T08:25:39;1.80;;;1.70;;
45011;SDS011;63444;48.148;11.542;2022-10-16T08:28:06;2.17;;;1.95;;
45011;SDS011;63444;48.148;11.542;2022-10-16T08:30:34;1.73;;;1.63;;
45011;SDS011;63444;48.148;11.542;2022-10-16T08:33:00;2.55;;;1.80;;
45011;SDS011;63444;48.148;11.542;2022-10-16T08:35:26;3.17;;;1.65;;
45011;SDS011;63444;48.148;11.542;2022-10-16T08:37:51;1.70;;;1.60;;
45011;SDS011;63444;48.148;11.542;2022-10-16T08:40:31;1.83;;;1.73;;
45011;SDS011;63444;48.148;11.542;2022-10-16T08:45:47;1.55;;;1.45;;
45011;SDS011;63444;48.148;11.542;2022-10-16T08:51:07;3.50;;;1.45;;
45011;SDS011;63444;48.148;11.542;2022-10-16T08:53:39;1.40;;;1.30;;
45011;SDS011;63444;48.148;11.542;2022-10-16T08:56:22;2.40;;;1.50;;
45011;SDS011;63444;48.148;11.542;2022-10-16T08:58:49;2.00;;;1.60;;
45011;SDS011;63444;48.148;11.542;2022-10-16T09:01:16;3.00;;;1.52;;
45011;SDS011;63444;48.148;11.542;2022-10-16T09:11:48;1.58;;;1.48;;
45011;SDS011;63444;48.148;11.542;2022-10-16T09:22:44;3.05;;;1.50;;
45011;SDS011;63444;48.148;11.542;2022-10-16T09:25:11;1.33;;;1.23;;
45011;SDS011;63444;48.148;11.542;2022-10-16T09:27:38;2.53;;;1.30;;
45011;SDS011;63444;48.148;11.542;2022-10-16T09:30:15;1.52;;;1.30;;
45011;SDS011;63444;48.148;11.542;2022-10-16T09:32:43;1.50;;;1.30;;
45011;SDS011;63444;48.148;11.542;2022-10-16T09:35:17;2.22;;;1.25;;
45011;SDS011;63444;48.148;11.542;2022-10-16T09:37:50;3.10;;;1.20;;
45011;SDS011;63444;48.148;11.542;2022-10-16T09:40:24;1.98;;;1.38;;
45011;SDS011;63444;48.148;11.542;2022-10-16T09:42:53;1.40;;;1.30;;
45011;SDS011;63444;48.148;11.542;2022-10-16T09:45:25;1.70;;;1.58;;
45011;SDS011;63444;48.148;11.542;2022-10-16T09:47:51;1.40;;;1.30;;
45011;SDS011;63444;48.148;11.542;2022-10-16T09:50:22;2.05;;;1.40;;
45011;SDS011;63444;48.148;11.542;2022-10-16T09:55:52;1.63;;;1.50;;
45011;SDS011;63444;48.148;11.542;2022-10-16T09:58:23;1.65;;;1.50;;
45011;SDS011;63444;48.148;11.542;2022-10-16T10:00:50;1.70;;;1.35;;
45011;SDS011;63444;48.148;11.542;2022-10-16T10:03:34;1.55;;;1.45;;
45011;SDS011;63444;48.148;11.542;2022-10-16T10:06:07;2.88;;;1.70;;
45011;SDS011;63444;48.148;11.542;2022-10-16T10:08:57;3.45;;;1.75;;
45011;SDS011;63444;48.148;11.542;2022-10-16T10:14:20;1.63;;;1.20;;
45011;SDS011;63444;48.148;11.542;2022-10-16T10:16:47;1.35;;;1.25;;
45011;SDS011;63444;48.148;11.542;2022-10-16T10:19:14;2.65;;;1.30;;
45011;SDS011;63444;48.148;11.542;2022-10-16T10:21:44;1.50;;;1.23;;
45011;SDS011;63444;48.148;11.542;2022-10-16T10:24:14;2.30;;;1.25;;
45011;SDS011;63444;48.148;11.542;2022-10-16T10:29:56;1.73;;;1.30;;
45011;SDS011;63444;48.148;11.542;2022-10-16T10:35:30;1.30;;;1.20;;
45011;SDS011;63444;48.148;11.542;2022-10-16T10:45:55;1.42;;;1.20;;
45011;SDS011;63444;48.148;11.542;2022-10-16T10:48:44;1.63;;;1.23;;
45011;SDS011;63444;48.148;11.542;2022-10-16T10:51:23;1.20;;;1.10;;
45011;SDS011;63444;48.148;11.542;2022-10-16T10:56:41;1.50;;;1.20;;
45011;SDS011;63444;48.148;11.542;2022-10-16T11:02:13;0.90;;;0.90;;
45011;SDS011;63444;48.148;11.542;2022-10-16T11:07:34;1.30;;;0.98;;
45011;SDS011;63444;48.148;11.542;2022-10-16T11:10:15;1.35;;;0.90;;
45011;SDS011;63444;48.148;11.542;2022-10-16T11:12:48;3.35;;;1.10;;
45011;SDS011;63444;48.148;11.542;2022-10-16T11:20:34;1.92;;;1.10;;
45011;SDS011;63444;48.148;11.542;2022-10-16T11:23:17;2.85;;;1.20;;
45011;SDS011;63444;48.148;11.542;2022-10-16T11:25:56;1.27;;;1.00;;
45011;SDS011;63444;48.148;11.542;2022-10-16T11:28:31;1.13;;;1.00;;
45011;SDS011;63444;48.148;11.542;2022-10-16T11:34:15;0.98;;;0.98;;
45011;SDS011;63444;48.148;11.542;2022-10-16T11:37:18;0.90;;;0.90;;
45011;SDS011;63444;48.148;11.542;2022-10-16T11:40:16;2.28;;;0.90;;
45011;SDS011;63444;48.148;11.542;2022-10-16T11:42:52;1.15;;;1.05;;
45011;SDS011;63444;48.148;11.542;2022-10-16T11:45:31;0.80;;;0.80;;
45011;SDS011;63444;48.148;11.542;2022-10-16T11:53:15;1.38;;;0.80;;
45011;SDS011;63444;48.148;11.542;2022-10-16T11:55:42;0.90;;;0.85;;
45011;SDS011;63444;48.148;11.542;2022-10-16T11:58:18;2.35;;;1.10;;
45011;SDS011;63444;48.148;11.542;2022-10-16T12:01:13;0.75;;;0.75;;
45011;SDS011;63444;48.148;11.542;2022-10-16T12:06:50;2.17;;;0.85;;
45011;SDS011;63444;48.148;11.542;2022-10-16T12:09:25;0.73;;;0.73;;
45011;SDS011;63444;48.148;11.542;2022-10-16T12:11:52;0.98;;;0.90;;
45011;SDS011;63444;48.148;11.542;2022-10-16T12:14:21;0.80;;;0.80;;
45011;SDS011;63444;48.148;11.542;2022-10-16T12:17:01;0.90;;;0.80;;
45011;SDS011;63444;48.148;11.542;2022-10-16T12:20:00;0.90;;;0.90;;
45011;SDS011;63444;48.148;11.542;2022-10-16T12:25:31;2.05;;;0.90;;
45011;SDS011;63444;48.148;11.542;2022-10-16T12:27:59;2.15;;;0.88;;
45011;SDS011;63444;48.148;11.542;2022-10-16T12:30:27;0.85;;;0.85;;
45011;SDS011;63444;48.148;11.542;2022-10-16T12:33:00;0.70;;;0.70;;
45011;SDS011;63444;48.148;11.542;2022-10-16T12:35:47;1.13;;;0.80;;
45011;SDS011;63444;48.148;11.542;2022-10-16T12:40:41;2.42;;;1.08;;
45011;SDS011;63444;48.148;11.542;2022-10-16T12:43:12;1.10;;;1.00;;
45011;SDS011;63444;48.148;11.542;2022-10-16T12:48:36;2.25;;;1.60;;
45011;SDS011;63444;48.148;11.542;2022-10-16T12:56:47;1.98;;;0.90;;
45011;SDS011;63444;48.148;11.542;2022-10-16T13:26:44;2.30;;;0.95;;
45011;SDS011;63444;48.148;11.542;2022-10-16T13:29:19;1.67;;;0.90;;
45011;SDS011;63444;48.148;11.542;2022-10-16T13:31:45;0.82;;;0.80;;
45011;SDS011;63444;48.148;11.542;2022-10-16T13:34:12;2.72;;;0.70;;
45011;SDS011;63444;48.148;11.542;2022-10-16T13:36:47;0.80;;;0.80;;
45011;SDS011;63444;48.148;11.542;2022-10-16T13:39:19;1.88;;;1.17;;
45011;SDS011;63444;48.148;11.542;2022-10-16T13:42:04;3.05;;;1.38;;
45011;SDS011;63444;48.148;11.542;2022-10-16T13:44:58;0.80;;;0.80;;
45011;SDS011;63444;48.148;11.542;2022-10-16T13:47:26;0.80;;;0.80;;
45011;SDS011;63444;48.148;11.542;2022-10-16T13:52:28;0.75;;;0.75;;
45011;SDS011;63444;48.148;11.542;2022-10-16T13:54:54;1.20;;;1.10;;
45011;SDS011;63444;48.148;11.542;2022-10-16T13:57:21;2.60;;;1.00;;
45011;SDS011;63444;48.148;11.542;2022-10-16T13:59:48;2.10;;;1.02;;
45011;SDS011;63444;48.148;11.542;2022-10-16T14:02:17;1.73;;;0.80;;
45011;SDS011;63444;48.148;11.542;2022-10-16T14:04:51;0.90;;;0.90;;
45011;SDS011;63444;48.148;11.542;2022-10-16T14:07:20;1.10;;;1.00;;
45011;SDS011;63444;48.148;11.542;2022-10-16T14:09:51;1.70;;;1.30;;
45011;SDS011;63444;48.148;11.542;2022-10-16T14:12:18;0.80;;;0.80;;
45011;SDS011;63444;48.148;11.542;2022-10-16T14:14:48;0.80;;;0.80;;
45011;SDS011;63444;48.148;11.542;2022-10-16T14:17:38;1.17;;;0.95;;
45011;SDS011;63444;48.148;11.542;2022-10-16T14:20:12;1.27;;;1.17;;
45011;SDS011;63444;48.148;11.542;2022-10-16T14:22:41;0.82;;;0.80;;
45011;SDS011;63444;48.148;11.542;2022-10-16T14:27:56;0.70;;;0.70;;
45011;SDS011;63444;48.148;11.542;2022-10-16T14:30:22;0.70;;;0.70;;
45011;SDS011;63444;48.148;11.542;2022-10-16T14:32:55;1.10;;;1.00;;
45011;SDS011;63444;48.148;11.542;2022-10-16T14:35:43;1.23;;;1.08;;
45011;SDS011;63444;48.148;11.542;2022-10-16T14:38:19;2.78;;;1.30;;
45011;SDS011;63444;48.148;11.542;2022-10-16T14:40:46;2.72;;;1.10;;
45011;SDS011;63444;48.148;11.542;2022-10-16T14:43:14;2.67;;;1.20;;
45011;SDS011;63444;48.148;11.542;2022-10-16T14:45:51;1.85;;;1.00;;
45011;SDS011;63444;48.148;11.542;2022-10-16T14:48:19;5.13;;;1.15;;
45011;SDS011;63444;48.148;11.542;2022-10-16T14:50:45;5.82;;;1.40;;
45011;SDS011;63444;48.148;11.542;2022-10-16T14:53:11;3.72;;;1.20;;
45011;SDS011;63444;48.148;11.542;2022-10-16T14:55:37;6.47;;;1.40;;
45011;SDS011;63444;48.148;11.542;2022-10-16T14:58:04;6.07;;;2.15;;
45011;SDS011;63444;48.148;11.542;2022-10-16T15:00:29;6.70;;;1.75;;
45011;SDS011;63444;48.148;11.542;2022-10-16T15:02:55;4.07;;;1.75;;
45011;SDS011;63444;48.148;11.542;2022-10-16T15:05:22;2.92;;;1.70;;
45011;SDS011;63444;48.148;11.542;2022-10-16T15:07:52;3.13;;;1.60;;
45011;SDS011;63444;48.148;11.542;2022-10-16T15:10:19;7.45;;;2.13;;
45011;SDS011;63444;48.148;11.542;2022-10-16T15:12:46;5.63;;;1.90;;
45011;SDS011;63444;48.148;11.542;2022-10-16T15:17:41;2.17;;;1.45;;
45011;SDS011;63444;48.148;11.542;2022-10-16T15:20:06;1.27;;;1.17;;
45011;SDS011;63444;48.148;11.542;2022-10-16T15:22:32;2.33;;;1.15;;
45011;SDS011;63444;48.148;11.542;2022-10-16T15:24:58;1.58;;;1.27;;
45011;SDS011;63444;48.148;11.542;2022-10-16T15:27:23;2.30;;;1.40;;
45011;SDS011;63444;48.148;11.542;2022-10-16T15:29:49;1.50;;;1.33;;
45011;SDS011;63444;48.148;11.542;2022-10-16T15:32:14;2.03;;;1.40;;
45011;SDS011;63444;48.148;11.542;2022-10-16T15:34:40;1.73;;;1.50;;
45011;SDS011;63444;48.148;11.542;2022-10-16T15:37:05;1.40;;;1.30;;
45011;SDS011;63444;48.148;11.542;2022-10-16T15:39:31;1.40;;;1.30;;
45011;SDS011;63444;48.148;11.542;2022-10-16T15:41:56;1.35;;;1.25;;
45011;SDS011;63444;48.148;11.542;2022-10-16T15:44:22;2.55;;;1.60;;
45011;SDS011;63444;48.148;11.542;2022-10-16T15:46:50;2.38;;;1.75;;
45011;SDS011;63444;48.148;11.542;2022-10-16T15:49:19;1.85;;;1.50;;
45011;SDS011;63444;48.148;11.542;2022-10-16T15:51:44;1.50;;;1.40;;
45011;SDS011;63444;48.148;11.542;2022-10-16T15:54:11;2.28;;;1.50;;
45011;SDS011;63444;48.148;11.542;2022-10-16T15:56:36;1.50;;;1.40;;
45011;SDS011;63444;48.148;11.542;2022-10-16T15:59:02;2.88;;;1.48;;
45011;SDS011;63444;48.148;11.542;2022-10-16T16:01:28;3.78;;;1.90;;
45011;SDS011;63444;48.148;11.542;2022-10-16T16:03:56;1.60;;;1.50;;
45011;SDS011;63444;48.148;11.542;2022-10-16T16:06:22;2.30;;;1.60;;
45011;SDS011;63444;48.148;11.542;2022-10-16T16:08:49;4.65;;;1.60;;
45011;SDS011;63444;48.148;11.542;2022-10-16T16:11:15;2.85;;;1.70;;
45011;SDS011;63444;48.148;11.542;2022-10-16T16:13:42;2.85;;;1.77;;
45011;SDS011;63444;48.148;11.542;2022-10-16T16:16:09;5.78;;;1.83;;
45011;SDS011;63444;48.148;11.542;2022-10-16T16:18:39;7.95;;;2.45;;
45011;SDS011;63444;48.148;11.542;2022-10-16T16:21:05;2.38;;;1.75;;
45011;SDS011;63444;48.148;11.542;2022-10-16T16:23:31;4.32;;;2.10;;
45011;SDS011;63444;48.148;11.542;2022-10-16T16:26:11;4.75;;;2.90;;
45011;SDS011;63444;48.148;11.542;2022-10-16T16:28:46;3.33;;;2.70;;
45011;SDS011;63444;48.148;11.542;2022-10-16T16:31:12;3.22;;;2.10;;
45011;SDS011;63444;48.148;11.542;2022-10-16T16:33:37;3.22;;;2.05;;
45011;SDS011;63444;48.148;11.542;2022-10-16T16:36:04;2.63;;;2.10;;
45011;SDS011;63444;48.148;11.542;2022-10-16T16:38:31;2.13;;;1.73;;
45011;SDS011;63444;48.148;11.542;2022-10-16T16:40:57;5.07;;;2.20;;
45011;SDS011;63444;48.148;11.542;2022-10-16T16:43:26;4.22;;;2.60;;
45011;SDS011;63444;48.148;11.542;2022-10-16T16:45:53;3.00;;;2.22;;
45011;SDS011;63444;48.148;11.542;2022-10-16T16:48:20;4.32;;;2.38;;
45011;SDS011;63444;48.148;11.542;2022-10-16T16:50:46;3.40;;;2.63;;